createdAt,value
2022-10-19T00:00:51.283Z,86.21
2022-10-19T00:03:23.129Z,86.24
2022-10-19T00:05:51.185Z,86.33
2022-10-19T00:08:19.047Z,86.80
2022-10-19T00:10:46.967Z,86.47
2022-10-19T00:13:14.871Z,86.47
2022-10-19T00:15:43.424Z,86.81
2022-10-19T00:18:11.197Z,86.41
2022-10-19T00:20:40.385Z,86.27
2022-10-19T00:23:08.254Z,86.47
2022-10-19T00:25:37.011Z,87.03
2022-10-19T00:28:05.116Z,87.08
2022-10-19T00:30:32.949Z,86.74
2022-10-19T00:33:00.721Z,86.98
2022-10-19T00:35:28.568Z,87.17
2022-10-19T00:37:57.730Z,87.28
2022-10-19T00:40:25.580Z,87.13
2022-10-19T00:42:56.222Z,87.01
2022-10-19T00:45:24.085Z,86.95
2022-10-19T00:47:51.994Z,87.42
2022-10-19T00:50:20.261Z,87.07
2022-10-19T00:52:48.436Z,87.30
2022-10-19T00:55:18.054Z,87.39
2022-10-19T00:57:45.941Z,88.04
2022-10-19T01:00:14.693Z,87.44
2022-10-19T01:02:42.552Z,87.48
2022-10-19T01:05:11.342Z,87.98
2022-10-19T01:07:39.131Z,87.58
2022-10-19T01:10:07.947Z,88.26
2022-10-19T01:13:00.092Z,87.98
2022-10-19T01:15:35.637Z,87.79
2022-10-19T01:18:12.048Z,87.67
2022-10-19T01:21:06.527Z,87.85
2022-10-19T01:24:19.201Z,87.82
2022-10-19T01:27:29.581Z,87.93
2022-10-19T01:30:09.668Z,87.50
2022-10-19T01:32:54.028Z,87.51
2022-10-19T01:35:29.934Z,87.49
2022-10-19T01:38:09.134Z,87.43
2022-10-19T01:40:43.468Z,87.44
2022-10-19T01:43:21.505Z,87.71
2022-10-19T01:45:53.605Z,87.36
2022-10-19T01:48:24.345Z,87.28
2022-10-19T01:50:58.525Z,87.65
2022-10-19T01:53:29.676Z,87.48
2022-10-19T01:55:59.468Z,87.12
2022-10-19T01:58:30.013Z,87.11
2022-10-19T02:01:04.507Z,86.66
2022-10-19T02:03:33.879Z,87.19
2022-10-19T02:06:05.176Z,87.21
2022-10-19T02:08:40.094Z,86.79
2022-10-19T02:11:08.050Z,87.51
2022-10-19T02:13:37.287Z,87.33
2022-10-19T02:16:11.038Z,87.17
2022-10-19T02:18:43.740Z,87.06
2022-10-19T02:21:11.992Z,87.12
2022-10-19T02:23:40.243Z,87.00
2022-10-19T02:26:09.176Z,87.12
2022-10-19T02:28:37.775Z,87.04
2022-10-19T02:31:07.442Z,86.95
2022-10-19T02:33:35.377Z,86.95
2022-10-19T02:36:03.744Z,87.48
2022-10-19T02:38:31.784Z,87.41
2022-10-19T02:41:06.905Z,87.64
2022-10-19T02:43:38.211Z,87.30
2022-10-19T02:46:11.688Z,87.51
2022-10-19T02:48:42.861Z,87.64
2022-10-19T02:51:29.133Z,87.51
2022-10-19T02:53:58.993Z,87.69
2022-10-19T02:56:29.587Z,87.80
2022-10-19T02:58:57.874Z,87.80
2022-10-19T03:01:27.190Z,87.63
2022-10-19T03:03:54.964Z,88.34
2022-10-19T03:06:22.810Z,87.88
2022-10-19T03:08:50.608Z,88.16
2022-10-19T03:11:18.484Z,88.08
2022-10-19T03:16:15.146Z,88.70
2022-10-19T03:18:44.300Z,88.93
2022-10-19T03:21:13.993Z,88.22
2022-10-19T03:23:42.437Z,88.51
2022-10-19T03:26:14.614Z,88.93
2022-10-19T03:28:42.666Z,88.62
2022-10-19T03:31:10.552Z,88.97
2022-10-19T03:33:38.492Z,88.76
2022-10-19T03:36:23.213Z,89.47
2022-10-19T03:38:52.661Z,89.63
2022-10-19T03:41:21.455Z,89.30
2022-10-19T03:43:49.366Z,89.02
2022-10-19T03:46:17.618Z,89.84
2022-10-19T03:48:45.827Z,89.95
2022-10-19T03:51:15.376Z,89.13
2022-10-19T03:53:45.058Z,89.71
2022-10-19T03:56:15.008Z,89.19
2022-10-19T03:58:44.703Z,89.92
2022-10-19T04:01:14.389Z,89.80
2022-10-19T04:03:42.372Z,89.70
2022-10-19T04:06:14.007Z,90.02
2022-10-19T04:08:45.921Z,89.73
2022-10-19T04:11:16.060Z,89.75
2022-10-19T04:13:43.876Z,89.52
2022-10-19T04:16:14.996Z,89.94
2022-10-19T04:18:42.905Z,89.59
2022-10-19T04:21:22.332Z,89.45
2022-10-19T04:23:52.462Z,89.79
2022-10-19T04:26:20.904Z,89.94
2022-10-19T04:28:48.915Z,90.53
2022-10-19T04:31:17.061Z,90.17
2022-10-19T04:36:13.739Z,90.88
2022-10-19T04:38:41.572Z,90.62
2022-10-19T04:41:12.974Z,90.26
2022-10-19T04:43:41.161Z,90.42
2022-10-19T04:46:10.914Z,90.01
2022-10-19T04:48:40.500Z,90.50
2022-10-19T04:51:09.055Z,90.62
2022-10-19T04:53:38.743Z,90.08
2022-10-19T04:56:07.962Z,90.69
2022-10-19T04:58:37.100Z,90.32
2022-10-19T05:01:09.654Z,90.70
2022-10-19T05:03:37.545Z,90.42
2022-10-19T05:06:05.685Z,90.58
2022-10-19T05:08:33.695Z,90.78
2022-10-19T05:11:05.944Z,91.07
2022-10-19T05:13:34.170Z,91.00
2022-10-19T05:16:05.798Z,91.03
2022-10-19T05:18:33.879Z,90.46
2022-10-19T05:21:03.279Z,90.06
2022-10-19T05:26:05.794Z,90.07
2022-10-19T05:28:34.023Z,90.29
2022-10-19T05:31:11.798Z,90.05
2022-10-19T05:33:40.496Z,90.75
2022-10-19T05:36:13.714Z,90.62
2022-10-19T05:38:41.673Z,90.17
2022-10-19T05:41:09.694Z,90.44
2022-10-19T05:43:37.703Z,90.74
2022-10-19T05:46:06.968Z,90.21
2022-10-19T05:48:36.450Z,90.25
2022-10-19T05:51:06.442Z,90.42
2022-10-19T05:53:36.349Z,90.38
2022-10-19T05:56:05.906Z,91.26
2022-10-19T05:58:34.208Z,90.85
2022-10-19T06:01:03.236Z,90.74
2022-10-19T06:03:31.680Z,91.40
2022-10-19T06:06:04.096Z,90.76
2022-10-19T06:08:32.087Z,90.66
2022-10-19T06:11:06.887Z,91.25
2022-10-19T06:13:34.831Z,91.30
2022-10-19T06:16:03.127Z,91.75
2022-10-19T06:18:31.329Z,91.63
2022-10-19T06:21:05.038Z,91.38
2022-10-19T06:23:33.627Z,90.94
2022-10-19T06:26:04.042Z,91.27
2022-10-19T06:28:32.007Z,91.02
2022-10-19T06:31:00.164Z,91.83
2022-10-19T06:33:30.019Z,92.10
2022-10-19T06:35:58.289Z,91.61
2022-10-19T06:38:27.507Z,91.83
2022-10-19T06:40:59.684Z,91.55
2022-10-19T06:43:27.544Z,91.65
2022-10-19T06:45:56.253Z,92.60
2022-10-19T06:48:24.616Z,91.89
2022-10-19T06:50:57.777Z,92.78
2022-10-19T06:53:29.045Z,92.41
2022-10-19T06:55:59.087Z,92.50
2022-10-19T06:58:29.501Z,93.52
2022-10-19T07:00:58.271Z,93.90
2022-10-19T07:03:28.911Z,93.99
2022-10-19T07:05:59.075Z,93.53
2022-10-19T07:08:29.971Z,94.54
2022-10-19T07:10:59.667Z,94.64
2022-10-19T07:13:28.369Z,95.16
2022-10-19T07:15:59.221Z,95.46
2022-10-19T07:18:27.399Z,95.49
2022-10-19T07:20:56.486Z,95.57
2022-10-19T07:23:29.693Z,95.05
2022-10-19T07:26:01.553Z,96.54
2022-10-19T07:28:29.753Z,97.16
2022-10-19T07:30:57.945Z,97.32
2022-10-19T07:33:25.874Z,97.10
2022-10-19T07:36:00.486Z,96.50
2022-10-19T07:38:31.853Z,97.09
2022-10-19T07:41:05.282Z,96.75
2022-10-19T07:43:34.009Z,96.29
2022-10-19T07:46:03.894Z,96.46
2022-10-19T07:48:31.773Z,95.73
2022-10-19T07:51:01.743Z,96.25
2022-10-19T07:53:30.973Z,95.20
2022-10-19T07:56:06.838Z,95.05
2022-10-19T07:58:35.434Z,95.57
2022-10-19T08:01:04.199Z,95.44
2022-10-19T08:04:14.273Z,96.14
2022-10-19T08:06:20.913Z,96.44
2022-10-19T08:08:50.876Z,96.05
2022-10-19T08:11:21.303Z,96.81
2022-10-19T08:13:49.755Z,96.75
2022-10-19T08:16:24.310Z,96.87
2022-10-19T08:18:52.971Z,97.09
2022-10-19T08:21:21.122Z,97.03
2022-10-19T08:23:50.708Z,97.57
2022-10-19T08:26:18.664Z,97.94
2022-10-19T08:28:46.648Z,97.49
2022-10-19T08:31:16.769Z,97.61
2022-10-19T08:33:45.335Z,97.92
2022-10-19T08:36:14.754Z,97.87
2022-10-19T08:38:44.737Z,98.12
2022-10-19T08:41:27.717Z,97.97
2022-10-19T08:44:17.197Z,97.90
2022-10-19T08:46:53.836Z,98.38
2022-10-19T08:49:25.497Z,98.24
2022-10-19T08:51:57.488Z,98.52
2022-10-19T08:54:30.129Z,98.65
2022-10-19T08:57:14.506Z,98.81
2022-10-19T08:59:50.297Z,98.42
2022-10-19T09:02:23.881Z,98.59
2022-10-19T09:04:58.736Z,98.89
2022-10-19T09:07:30.016Z,98.77
2022-10-19T09:10:02.385Z,98.58
2022-10-19T09:12:43.707Z,98.23
2022-10-19T09:15:16.012Z,97.96
2022-10-19T09:17:44.321Z,98.11
2022-10-19T09:20:18.759Z,97.65
2022-10-19T09:22:49.147Z,97.19
2022-10-19T09:25:21.219Z,97.15
2022-10-19T09:28:04.490Z,97.63
2022-10-19T09:30:36.374Z,97.32
2022-10-19T09:33:04.831Z,96.22
2022-10-19T09:35:42.761Z,96.22
2022-10-19T09:38:16.732Z,96.14
2022-10-19T09:40:50.487Z,96.13
2022-10-19T09:43:21.969Z,95.79
2022-10-19T09:45:54.218Z,94.66
2022-10-19T09:48:30.448Z,92.93
2022-10-19T09:51:01.448Z,93.32
2022-10-19T09:53:34.991Z,93.66
2022-10-19T09:56:07.657Z,92.90
2022-10-19T09:58:37.162Z,92.79
2022-10-19T10:01:05.072Z,91.30
2022-10-19T10:03:35.356Z,91.46
2022-10-19T10:06:08.405Z,91.72
2022-10-19T10:08:39.313Z,90.50
2022-10-19T10:11:12.407Z,90.54
2022-10-19T10:13:44.601Z,90.94
2022-10-19T10:16:16.399Z,90.27
2022-10-19T10:18:54.308Z,88.22
2022-10-19T10:21:25.704Z,89.43
2022-10-19T10:24:05.595Z,88.05
2022-10-19T10:26:38.680Z,87.99
2022-10-19T10:29:18.398Z,85.02
2022-10-19T10:31:48.683Z,87.13
2022-10-19T10:34:29.938Z,85.87
2022-10-19T10:37:09.349Z,85.86
2022-10-19T10:39:42.555Z,85.61
2022-10-19T10:42:15.666Z,84.38
2022-10-19T10:44:52.595Z,79.36
2022-10-19T10:47:22.213Z,83.25
2022-10-19T10:49:57.629Z,81.21
2022-10-19T10:52:29.103Z,78.92
2022-10-19T10:55:03.701Z,77.57
2022-10-19T10:57:35.661Z,80.91
2022-10-19T11:00:11.587Z,80.76
2022-10-19T11:02:50.684Z,78.08
2022-10-19T11:05:23.770Z,78.11
2022-10-19T11:07:56.029Z,76.87
2022-10-19T11:10:29.665Z,77.97
2022-10-19T11:13:06.713Z,78.85
2022-10-19T11:15:41.650Z,75.51
2022-10-19T11:18:19.568Z,73.96
2022-10-19T11:20:55.001Z,74.46
2022-10-19T11:23:32.315Z,73.64
2022-10-19T11:26:11.876Z,75.53
2022-10-19T11:28:55.501Z,75.25
2022-10-19T11:31:37.143Z,75.87
2022-10-19T11:34:18.066Z,75.38
2022-10-19T11:36:54.929Z,76.55
2022-10-19T11:39:41.622Z,74.61
2022-10-19T11:42:17.043Z,75.69
2022-10-19T11:44:59.316Z,75.40
2022-10-19T11:47:37.620Z,75.58
2022-10-19T11:50:23.255Z,75.00
2022-10-19T11:53:01.512Z,74.92
2022-10-19T11:55:40.507Z,74.55
2022-10-19T11:58:34.470Z,74.66
2022-10-19T12:01:17.658Z,73.82
2022-10-19T12:04:28.455Z,74.71
2022-10-19T12:07:07.257Z,74.61
2022-10-19T12:09:44.565Z,73.20
2022-10-19T12:12:30.797Z,73.37
2022-10-19T12:15:17.008Z,74.57
2022-10-19T12:17:48.846Z,74.28
2022-10-19T12:20:22.987Z,73.88
2022-10-19T12:22:52.453Z,73.13
2022-10-19T12:25:23.956Z,73.17
2022-10-19T12:27:54.851Z,73.36
2022-10-19T12:30:28.725Z,71.78
2022-10-19T12:33:15.825Z,72.64
2022-10-19T12:36:00.492Z,72.06
2022-10-19T12:38:40.966Z,70.56
2022-10-19T12:41:23.471Z,71.95
2022-10-19T12:44:02.987Z,70.88
2022-10-19T12:46:41.434Z,71.36
2022-10-19T12:49:47.440Z,71.91
2022-10-19T12:52:18.191Z,72.57
2022-10-19T12:54:47.552Z,72.61
2022-10-19T12:57:27.265Z,72.42
2022-10-19T13:00:05.415Z,73.06
2022-10-19T13:02:36.438Z,72.33
2022-10-19T13:05:07.912Z,73.30
2022-10-19T13:07:37.528Z,73.32
2022-10-19T13:10:19.659Z,73.55
2022-10-19T13:12:48.844Z,73.21
2022-10-19T13:15:50.410Z,73.47
2022-10-19T13:19:06.950Z,73.10
2022-10-19T13:22:25.819Z,72.45
2022-10-19T13:25:33.166Z,72.90
2022-10-19T13:28:18.875Z,71.87
2022-10-19T13:31:07.051Z,71.48
2022-10-19T13:33:51.963Z,71.75
2022-10-19T13:36:21.394Z,72.55
2022-10-19T13:39:33.485Z,70.94
2022-10-19T13:42:01.465Z,72.37
2022-10-19T13:44:35.596Z,72.24
2022-10-19T13:47:34.614Z,72.37
2022-10-19T13:50:23.675Z,72.20
2022-10-19T13:53:22.722Z,72.06
2022-10-19T13:56:03.158Z,70.21
2022-10-19T13:59:09.402Z,71.18
2022-10-19T14:01:52.965Z,71.31
2022-10-19T14:04:29.602Z,72.42
2022-10-19T14:07:02.401Z,72.34
2022-10-19T14:09:48.544Z,72.42
2022-10-19T14:12:23.897Z,72.54
2022-10-19T14:14:53.882Z,71.77
2022-10-19T14:17:25.553Z,71.84
2022-10-19T14:19:57.034Z,71.98
2022-10-19T14:22:29.853Z,71.43
2022-10-19T14:25:18.806Z,71.25
2022-10-19T14:27:47.927Z,72.77
2022-10-19T14:30:24.234Z,71.71
2022-10-19T14:32:56.883Z,71.40
2022-10-19T14:35:30.649Z,71.50
2022-10-19T14:37:59.402Z,72.44
2022-10-19T14:40:29.580Z,71.93
2022-10-19T14:42:58.859Z,72.09
2022-10-19T14:45:28.587Z,72.32
2022-10-19T14:48:04.016Z,72.04
2022-10-19T14:50:40.849Z,72.91
2022-10-19T14:53:23.381Z,72.33
2022-10-19T14:55:56.187Z,73.43
2022-10-19T14:58:27.268Z,73.46
2022-10-19T15:00:56.395Z,73.50
2022-10-19T15:03:28.598Z,73.39
2022-10-19T15:06:00.035Z,73.68
2022-10-19T15:08:37.540Z,73.53
2022-10-19T15:11:07.495Z,74.02
2022-10-19T15:13:41.479Z,74.27
2022-10-19T15:16:29.759Z,73.31
2022-10-19T15:19:04.368Z,73.39
2022-10-19T15:21:33.504Z,74.53
2022-10-19T15:24:10.247Z,74.13
2022-10-19T15:26:38.409Z,74.30
2022-10-19T15:29:10.787Z,74.68
2022-10-19T15:31:39.040Z,74.64
2022-10-19T15:34:24.518Z,73.81
2022-10-19T15:36:57.877Z,74.44
2022-10-19T15:39:38.966Z,74.69
2022-10-19T15:42:34.620Z,74.38
2022-10-19T15:45:06.490Z,74.75
2022-10-19T15:47:34.969Z,75.38
2022-10-19T15:50:05.049Z,74.94
2022-10-19T15:52:34.850Z,75.46
2022-10-19T15:55:03.168Z,74.85
2022-10-19T15:57:34.692Z,75.05
2022-10-19T16:00:09.214Z,75.75
2022-10-19T16:02:39.066Z,74.79
2022-10-19T16:05:11.958Z,75.17
2022-10-19T16:07:42.131Z,75.22
2022-10-19T16:10:17.137Z,74.34
2022-10-19T16:12:45.750Z,75.13
2022-10-19T16:15:13.936Z,75.39
2022-10-19T16:17:52.557Z,75.33
2022-10-19T16:20:22.621Z,75.82
2022-10-19T16:22:50.651Z,76.37
2022-10-19T16:25:19.140Z,76.03
2022-10-19T16:27:47.127Z,75.68
2022-10-19T16:30:15.614Z,75.88
2022-10-19T16:32:45.969Z,75.58
2022-10-19T16:35:14.035Z,75.94
2022-10-19T16:37:43.250Z,76.10
2022-10-19T16:40:11.986Z,76.61
2022-10-19T16:42:40.062Z,77.00
2022-10-19T16:45:09.470Z,77.13
2022-10-19T16:47:37.712Z,76.83
2022-10-19T16:50:13.483Z,77.01
2022-10-19T16:52:43.010Z,77.24
2022-10-19T16:55:11.559Z,77.65
2022-10-19T16:57:39.782Z,77.37
2022-10-19T17:00:10.146Z,77.08
2022-10-19T17:02:41.989Z,77.71
2022-10-19T17:05:12.260Z,77.69
2022-10-19T17:07:40.190Z,77.69
2022-10-19T17:10:10.391Z,78.42
2022-10-19T17:12:41.749Z,77.98
2022-10-19T17:15:37.535Z,78.07
2022-10-19T17:17:59.028Z,78.34
2022-10-19T17:20:26.992Z,79.03
2022-10-19T17:22:54.940Z,79.17
2022-10-19T17:25:24.274Z,78.89
2022-10-19T17:27:52.413Z,78.64
2022-10-19T17:30:20.289Z,79.25
2022-10-19T17:32:48.260Z,79.35
2022-10-19T17:35:16.290Z,79.42
2022-10-19T17:37:44.261Z,79.78
2022-10-19T17:40:12.817Z,79.83
2022-10-19T17:42:42.067Z,79.54
2022-10-19T17:45:11.361Z,80.06
2022-10-19T17:47:39.659Z,79.74
2022-10-19T17:50:08.552Z,80.05
2022-10-19T17:52:36.519Z,80.03
2022-10-19T17:55:12.159Z,80.21
2022-10-19T17:57:41.762Z,80.74
2022-10-19T18:00:10.371Z,80.39
2022-10-19T18:02:38.274Z,80.44
2022-10-19T18:05:06.769Z,80.42
2022-10-19T18:07:35.017Z,80.99
2022-10-19T18:10:03.111Z,80.69
2022-10-19T18:12:31.017Z,80.81
2022-10-19T18:15:00.207Z,80.97
2022-10-19T18:17:28.348Z,81.17
2022-10-19T18:19:56.255Z,81.01
2022-10-19T18:22:24.187Z,80.83
2022-10-19T18:24:52.045Z,81.35
2022-10-19T18:27:19.904Z,81.20
2022-10-19T18:29:47.893Z,81.36
2022-10-19T18:32:17.299Z,81.49
2022-10-19T18:34:45.416Z,81.35
2022-10-19T18:37:13.421Z,81.47
2022-10-19T18:39:42.241Z,81.81
2022-10-19T18:42:12.783Z,81.79
2022-10-19T18:44:41.158Z,82.61
2022-10-19T18:47:09.118Z,82.18
2022-10-19T18:49:38.618Z,82.26
2022-10-19T18:52:06.591Z,82.59
2022-10-19T18:54:34.575Z,82.58
2022-10-19T18:57:02.507Z,82.54
2022-10-19T18:59:30.427Z,82.22
2022-10-19T19:01:58.248Z,82.84
2022-10-19T19:04:26.223Z,82.75
2022-10-19T19:06:55.452Z,82.60
2022-10-19T19:09:23.397Z,82.87
2022-10-19T19:11:52.106Z,82.62
2022-10-19T19:14:22.065Z,82.75
2022-10-19T19:16:50.009Z,82.63
2022-10-19T19:19:19.639Z,83.04
2022-10-19T19:21:49.100Z,83.25
2022-10-19T19:24:19.833Z,83.45
2022-10-19T19:26:50.062Z,83.02
2022-10-19T19:29:18.897Z,83.72
2022-10-19T19:31:47.248Z,83.66
2022-10-19T19:34:15.397Z,84.31
2022-10-19T19:36:47.808Z,84.34
2022-10-19T19:39:20.050Z,84.11
2022-10-19T19:41:48.771Z,84.13
2022-10-19T19:44:17.144Z,84.18
2022-10-19T19:46:45.047Z,84.40
2022-10-19T19:49:13.122Z,84.38
2022-10-19T19:51:41.120Z,84.21
2022-10-19T19:54:09.233Z,84.54
2022-10-19T19:56:39.643Z,84.80
2022-10-19T19:59:07.474Z,84.78
2022-10-19T20:01:37.397Z,84.86
2022-10-19T20:04:06.468Z,84.89
2022-10-19T20:06:36.594Z,84.80
2022-10-19T20:09:06.086Z,84.91
2022-10-19T20:11:37.150Z,84.90
2022-10-19T20:14:09.088Z,85.25
2022-10-19T20:16:37.315Z,84.98
2022-10-19T20:19:08.440Z,85.07
2022-10-19T20:21:36.425Z,85.05
2022-10-19T20:24:04.946Z,85.08
2022-10-19T20:26:33.476Z,85.17
2022-10-19T20:29:02.978Z,85.42
2022-10-19T20:31:33.691Z,85.71
2022-10-19T20:34:01.622Z,85.70
2022-10-19T20:36:29.443Z,85.79
2022-10-19T20:38:59.529Z,85.84
2022-10-19T20:41:29.017Z,85.91
2022-10-19T20:43:57.357Z,86.13
2022-10-19T20:46:27.610Z,86.66
2022-10-19T20:48:59.673Z,86.84
2022-10-19T20:51:32.119Z,86.93
2022-10-19T20:54:01.969Z,86.74
2022-10-19T20:56:32.418Z,86.86
2022-10-19T21:01:31.962Z,87.18
2022-10-19T21:04:03.382Z,87.05
2022-10-19T21:06:32.886Z,87.50
2022-10-19T21:09:01.142Z,87.43
2022-10-19T21:11:30.631Z,87.25
2022-10-19T21:14:00.269Z,87.56
2022-10-19T21:16:30.280Z,87.60
2022-10-19T21:19:00.412Z,87.23
2022-10-19T21:21:32.029Z,87.95
2022-10-19T21:24:02.634Z,87.48
2022-10-19T21:26:30.467Z,87.51
2022-10-19T21:28:58.648Z,87.67
2022-10-19T21:31:27.736Z,87.30
2022-10-19T21:33:56.160Z,86.85
2022-10-19T21:36:26.060Z,87.44
2022-10-19T21:38:55.253Z,87.52
2022-10-19T21:41:26.203Z,87.17
2022-10-19T21:43:54.610Z,87.28
2022-10-19T21:46:23.857Z,87.57
2022-10-19T21:48:52.384Z,87.38
2022-10-19T21:51:31.622Z,87.20
2022-10-19T21:54:01.514Z,87.42
2022-10-19T21:56:29.567Z,87.51
2022-10-19T21:58:58.327Z,87.26
2022-10-19T22:01:28.697Z,87.45
2022-10-19T22:03:57.600Z,87.11
2022-10-19T22:06:26.099Z,87.16
2022-10-19T22:08:54.899Z,86.80
2022-10-19T22:11:25.285Z,87.37
2022-10-19T22:13:55.760Z,87.41
2022-10-19T22:16:24.505Z,87.37
2022-10-19T22:18:53.332Z,87.21
2022-10-19T22:21:23.548Z,87.21
2022-10-19T22:23:53.439Z,87.43
2022-10-19T22:26:23.779Z,87.39
2022-10-19T22:28:54.057Z,87.47
2022-10-19T22:31:22.521Z,87.55
2022-10-19T22:33:50.374Z,87.79
2022-10-19T22:36:18.467Z,87.80
2022-10-19T22:38:46.415Z,88.23
2022-10-19T22:41:14.196Z,88.09
2022-10-19T22:43:42.095Z,88.10
2022-10-19T22:46:11.491Z,89.03
2022-10-19T22:48:39.314Z,88.92
2022-10-19T22:51:07.313Z,88.69
2022-10-19T22:53:35.142Z,88.29
2022-10-19T22:56:02.965Z,88.53
2022-10-19T22:58:30.885Z,88.83
2022-10-19T23:01:14.879Z,89.36
2022-10-19T23:03:44.815Z,89.30
2022-10-19T23:06:14.801Z,89.08
2022-10-19T23:08:43.272Z,89.32
2022-10-19T23:11:11.365Z,89.15
2022-10-19T23:13:39.263Z,89.04
2022-10-19T23:16:07.687Z,89.19
2022-10-19T23:18:37.364Z,88.92
2022-10-19T23:21:09.472Z,88.71
2022-10-19T23:23:38.173Z,88.63
2022-10-19T23:26:08.146Z,88.78
2022-10-19T23:28:37.919Z,88.82
2022-10-19T23:31:08.389Z,88.92
2022-10-19T23:33:37.040Z,88.62
2022-10-19T23:36:10.315Z,88.66
2022-10-19T23:38:38.203Z,88.67
2022-10-19T23:41:06.269Z,88.91
2022-10-19T23:46:02.703Z,88.90
2022-10-19T23:48:30.912Z,88.90
2022-10-19T23:51:00.717Z,89.12
2022-10-19T23:53:34.670Z,88.99
2022-10-19T23:56:07.199Z,89.01
2022-10-19T23:58:35.525Z,89.27
